createdAt,value
2016-04-16T00:00:22.571Z,0
2016-04-16T00:01:22.839Z,0
2016-04-16T00:02:22.577Z,0
2016-04-16T00:03:22.595Z,0
2016-04-16T00:04:22.692Z,0
2016-04-16T00:05:22.600Z,0
2016-04-16T00:06:22.603Z,0
2016-04-16T00:07:22.621Z,0
2016-04-16T00:08:22.827Z,0
2016-04-16T00:09:22.768Z,0
2016-04-16T00:10:22.645Z,0
2016-04-16T00:11:22.648Z,0
2016-04-16T00:12:22.806Z,0
2016-04-16T00:13:22.668Z,0
2016-04-16T00:14:22.671Z,0
2016-04-16T00:15:22.690Z,0
2016-04-16T00:16:22.818Z,0
2016-04-16T00:17:22.680Z,0
2016-04-16T00:18:22.901Z,0
2016-04-16T00:19:22.545Z,0
2016-04-16T00:20:22.703Z,0
2016-04-16T00:21:22.722Z,0
2016-04-16T00:22:22.709Z,0
2016-04-16T00:23:22.728Z,0
2016-04-16T00:24:22.824Z,0
2016-04-16T00:25:22.748Z,0
2016-04-16T00:26:22.829Z,0
2016-04-16T00:27:22.753Z,0
2016-04-16T00:28:22.897Z,0
2016-04-16T00:29:22.915Z,0
2016-04-16T00:30:22.761Z,0
2016-04-16T00:31:22.920Z,0
2016-04-16T00:32:22.766Z,0
2016-04-16T00:33:22.800Z,0
2016-04-16T00:34:22.850Z,0
2016-04-16T00:35:22.806Z,0
2016-04-16T00:36:22.809Z,0
2016-04-16T00:37:22.827Z,0
2016-04-16T00:38:22.814Z,0
2016-04-16T00:39:22.816Z,0
2016-04-16T00:40:23.101Z,0
2016-04-16T00:41:22.822Z,0
2016-04-16T00:42:22.856Z,0
2016-04-16T00:43:22.859Z,0
2016-04-16T00:44:22.861Z,0
2016-04-16T00:45:23.020Z,0
2016-04-16T00:46:22.882Z,0
2016-04-16T00:47:22.870Z,0
2016-04-16T00:48:22.982Z,0
2016-04-16T00:49:22.891Z,0
2016-04-16T00:50:22.956Z,0
2016-04-16T00:51:22.912Z,0
2016-04-16T00:52:22.914Z,0
2016-04-16T00:53:22.934Z,0
2016-04-16T00:54:22.936Z,0
2016-04-16T00:55:22.954Z,0
2016-04-16T00:56:22.957Z,0
2016-04-16T00:57:22.944Z,0
2016-04-16T00:58:22.962Z,0
2016-04-16T00:59:22.964Z,0
2016-04-16T01:00:22.967Z,0
2016-04-16T01:01:23.079Z,0
2016-04-16T01:02:22.988Z,0
2016-04-16T01:03:22.991Z,0
2016-04-16T01:04:23.009Z,0
2016-04-16T01:05:23.137Z,0
2016-04-16T01:06:23.046Z,0
2016-04-16T01:07:23.049Z,0
2016-04-16T01:08:23.051Z,0
2016-04-16T01:09:23.038Z,0
2016-04-16T01:10:23.041Z,0
2016-04-16T01:11:23.059Z,0
2016-04-16T01:12:23.062Z,0
2016-04-16T01:13:23.079Z,0
2016-04-16T01:14:23.083Z,0
2016-04-16T01:15:23.085Z,0
2016-04-16T01:16:23.088Z,0
2016-04-16T01:17:23.137Z,0
2016-04-16T01:18:23.109Z,0
2016-04-16T01:19:23.112Z,0
2016-04-16T01:20:23.145Z,0
2016-04-16T01:21:23.134Z,0
2016-04-16T01:22:23.136Z,0
2016-04-16T01:23:23.139Z,0
2016-04-16T01:24:23.156Z,0
2016-04-16T01:25:23.175Z,0
2016-04-16T01:26:23.177Z,0
2016-04-16T01:27:23.195Z,0
2016-04-16T01:28:23.245Z,0
2016-04-16T01:29:23.248Z,0
2016-04-16T01:30:23.219Z,0
2016-04-16T01:31:23.238Z,0
2016-04-16T01:32:23.241Z,0
2016-04-16T01:33:23.227Z,0
2016-04-16T01:34:23.230Z,0
2016-04-16T01:35:23.296Z,0
2016-04-16T01:36:23.235Z,0
2016-04-16T01:37:23.269Z,0
2016-04-16T01:38:23.272Z,0
2016-04-16T01:39:23.290Z,0
2016-04-16T01:40:23.277Z,0
2016-04-16T01:41:23.280Z,0
2016-04-16T01:42:23.298Z,0
2016-04-16T01:43:23.301Z,0
2016-04-16T01:44:23.320Z,0
2016-04-16T01:45:23.323Z,0
2016-04-16T01:46:23.326Z,0
2016-04-16T01:47:23.375Z,0
2016-04-16T01:48:23.346Z,0
2016-04-16T01:49:23.349Z,0
2016-04-16T01:50:23.445Z,0
2016-04-16T01:51:23.385Z,0
2016-04-16T01:52:23.356Z,0
2016-04-16T01:53:23.390Z,0
2016-04-16T01:54:23.393Z,0
2016-04-16T01:55:23.396Z,0
2016-04-16T01:56:23.399Z,0
2016-04-16T01:57:23.401Z,0
2016-04-16T01:58:23.436Z,0
2016-04-16T01:59:23.422Z,0
2016-04-16T02:00:23.441Z,0
2016-04-16T02:01:23.443Z,0
2016-04-16T02:02:23.430Z,0
2016-04-16T02:03:23.468Z,0
2016-04-16T02:04:23.486Z,0
2016-04-16T02:05:23.583Z,0
2016-04-16T02:06:23.492Z,0
2016-04-16T02:07:23.495Z,0
2016-04-16T02:08:23.497Z,0
2016-04-16T02:09:23.500Z,0
2016-04-16T02:10:23.503Z,0
2016-04-16T02:11:23.522Z,0
2016-04-16T02:12:23.525Z,0
2016-04-16T02:13:23.527Z,0
2016-04-16T02:14:23.545Z,0
2016-04-16T02:15:23.547Z,0
2016-04-16T02:16:23.550Z,0
2016-04-16T02:17:23.568Z,0
2016-04-16T02:18:23.586Z,0
2016-04-16T02:19:23.574Z,0
2016-04-16T02:20:24.139Z,0
2016-04-16T02:21:23.469Z,0
2016-04-16T02:22:23.600Z,0
2016-04-16T02:23:23.618Z,0
2016-04-16T02:24:23.621Z,0
2016-04-16T02:25:23.623Z,0
2016-04-16T02:26:23.626Z,0
2016-04-16T02:27:23.645Z,0
2016-04-16T02:28:23.662Z,0
2016-04-16T02:29:23.651Z,0
2016-04-16T02:30:23.668Z,0
2016-04-16T02:31:23.671Z,0
2016-04-16T02:32:23.689Z,0
2016-04-16T02:33:23.692Z,0
2016-04-16T02:34:23.678Z,0
2016-04-16T02:35:23.697Z,0
2016-04-16T02:36:23.700Z,0
2016-04-16T02:37:23.718Z,0
2016-04-16T02:38:23.721Z,0
2016-04-16T02:39:23.723Z,0
2016-04-16T02:40:23.758Z,0
2016-04-16T02:41:23.744Z,0
2016-04-16T02:42:23.763Z,0
2016-04-16T02:43:23.765Z,0
2016-04-16T02:44:23.809Z,0
2016-04-16T02:45:23.855Z,0
2016-04-16T02:46:23.931Z,0
2016-04-16T02:47:23.961Z,0
2016-04-16T02:48:24.022Z,0
2016-04-16T02:49:24.057Z,0
2016-04-16T02:50:24.075Z,0
2016-04-16T02:51:24.093Z,0
2016-04-16T02:52:24.111Z,0
2016-04-16T02:53:24.130Z,0
2016-04-16T02:54:24.122Z,0
2016-04-16T02:55:24.146Z,0
2016-04-16T02:56:24.170Z,0
2016-04-16T02:57:24.178Z,0
2016-04-16T02:58:24.217Z,0
2016-04-16T02:59:24.207Z,0
2016-04-16T03:00:24.227Z,0
2016-04-16T03:01:24.216Z,0
2016-04-16T03:02:24.222Z,0
2016-04-16T03:03:24.273Z,0
2016-04-16T03:04:24.244Z,0
2016-04-16T03:05:24.264Z,0
2016-04-16T03:06:24.267Z,0
2016-04-16T03:07:24.271Z,0
2016-04-16T03:08:24.290Z,0
2016-04-16T03:09:24.293Z,0
2016-04-16T03:10:24.296Z,0
2016-04-16T03:11:24.315Z,0
2016-04-16T03:12:24.318Z,0
2016-04-16T03:13:24.321Z,0
2016-04-16T03:14:24.339Z,0
2016-04-16T03:15:24.358Z,0
2016-04-16T03:16:24.345Z,0
2016-04-16T03:17:24.347Z,0
2016-04-16T03:18:24.366Z,0
2016-04-16T03:19:24.368Z,0
2016-04-16T03:20:24.387Z,0
2016-04-16T03:21:24.389Z,0
2016-04-16T03:22:24.423Z,0
2016-04-16T03:23:24.410Z,0
2016-04-16T03:24:24.444Z,0
2016-04-16T03:25:24.430Z,0
2016-04-16T03:26:24.433Z,0
2016-04-16T03:27:24.421Z,0
2016-04-16T03:28:24.439Z,0
2016-04-16T03:29:24.458Z,0
2016-04-16T03:30:24.460Z,0
2016-04-16T03:31:24.463Z,0
2016-04-16T03:32:24.466Z,0
2016-04-16T03:33:24.484Z,0
2016-04-16T03:34:24.502Z,0
2016-04-16T03:35:24.489Z,0
2016-04-16T03:36:24.507Z,0
2016-04-16T03:37:24.510Z,0
2016-04-16T03:38:24.529Z,0
2016-04-16T03:39:24.531Z,0
2016-04-16T03:40:24.534Z,0
2016-04-16T03:41:24.537Z,0
2016-04-16T03:42:24.539Z,0
2016-04-16T03:43:24.543Z,0
2016-04-16T03:44:24.576Z,0
2016-04-16T03:45:24.564Z,0
2016-04-16T03:46:24.581Z,0
2016-04-16T03:47:24.584Z,0
2016-04-16T03:48:24.587Z,0
2016-04-16T03:49:24.589Z,0
2016-04-16T03:50:24.608Z,0
2016-04-16T03:51:24.610Z,0
2016-04-16T03:52:24.629Z,0
2016-04-16T03:53:24.616Z,0
2016-04-16T03:54:24.634Z,0
2016-04-16T03:55:24.652Z,0
2016-04-16T03:56:24.655Z,0
2016-04-16T03:57:24.674Z,0
2016-04-16T03:58:24.660Z,0
2016-04-16T03:59:24.679Z,0
2016-04-16T04:00:24.681Z,0
2016-04-16T04:01:24.684Z,0
2016-04-16T04:02:23.968Z,0
2016-04-16T04:03:24.705Z,0
2016-04-16T04:04:24.708Z,0
2016-04-16T04:05:24.710Z,0
2016-04-16T04:06:24.729Z,0
2016-04-16T04:07:24.715Z,0
2016-04-16T04:08:24.734Z,0
2016-04-16T04:09:24.753Z,0
2016-04-16T04:10:24.756Z,0
2016-04-16T04:11:24.759Z,0
2016-04-16T04:12:24.776Z,0
2016-04-16T04:13:24.779Z,0
2016-04-16T04:14:24.797Z,0
2016-04-16T04:15:24.784Z,0
2016-04-16T04:16:24.803Z,0
2016-04-16T04:17:24.805Z,0
2016-04-16T04:18:24.823Z,0
2016-04-16T04:19:24.811Z,0
2016-04-16T04:20:24.829Z,0
2016-04-16T04:21:24.832Z,0
2016-04-16T04:22:24.850Z,0
2016-04-16T04:23:24.697Z,0
2016-04-16T04:24:24.871Z,0
2016-04-16T04:25:24.874Z,0
2016-04-16T04:26:24.876Z,0
2016-04-16T04:27:24.879Z,0
2016-04-16T04:28:24.897Z,0
2016-04-16T04:29:24.916Z,0
2016-04-16T04:30:24.903Z,0
2016-04-16T04:31:24.937Z,0
2016-04-16T04:32:24.768Z,0
2016-04-16T04:33:24.942Z,0
2016-04-16T04:34:24.961Z,0
2016-04-16T04:35:24.963Z,0
2016-04-16T04:36:24.966Z,0
2016-04-16T04:37:24.954Z,0
2016-04-16T04:38:24.971Z,0
2016-04-16T04:39:24.974Z,0
2016-04-16T04:40:24.976Z,0
2016-04-16T04:41:25.010Z,0
2016-04-16T04:42:24.997Z,0
2016-04-16T04:43:25.016Z,0
2016-04-16T04:44:25.018Z,0
2016-04-16T04:45:25.021Z,0
2016-04-16T04:46:25.040Z,0
2016-04-16T04:47:25.026Z,0
2016-04-16T04:48:25.045Z,0
2016-04-16T04:49:25.047Z,0
2016-04-16T04:50:25.363Z,0
2016-04-16T04:51:25.069Z,0
2016-04-16T04:52:25.072Z,0
2016-04-16T04:53:25.090Z,0
2016-04-16T04:54:25.108Z,0
2016-04-16T04:55:25.095Z,0
2016-04-16T04:56:25.113Z,0
2016-04-16T04:57:25.116Z,0
2016-04-16T04:58:25.134Z,0
2016-04-16T04:59:25.138Z,0
2016-04-16T05:00:25.140Z,0
2016-04-16T05:01:25.143Z,0
2016-04-16T05:02:25.161Z,0
2016-04-16T05:03:25.163Z,0
2016-04-16T05:04:25.166Z,0
2016-04-16T05:05:25.528Z,0
2016-04-16T05:06:25.187Z,0
2016-04-16T05:07:25.174Z,5
2016-04-16T05:08:25.211Z,5
2016-04-16T05:09:25.198Z,5
2016-04-16T05:10:25.216Z,5
2016-04-16T05:11:25.218Z,5
2016-04-16T05:12:25.222Z,5
2016-04-16T05:13:25.224Z,5
2016-04-16T05:14:25.243Z,5
2016-04-16T05:15:25.402Z,5
2016-04-16T05:16:25.264Z,5
2016-04-16T05:17:25.453Z,5
2016-04-16T05:18:25.269Z,5
2016-04-16T05:19:25.272Z,5
2016-04-16T05:20:25.290Z,5
2016-04-16T05:21:25.293Z,5
2016-04-16T05:22:25.484Z,5
2016-04-16T05:23:25.298Z,5
2016-04-16T05:24:25.317Z,5
2016-04-16T05:25:25.570Z,5
2016-04-16T05:26:25.384Z,5
2016-04-16T05:27:25.340Z,5
2016-04-16T05:28:25.359Z,5
2016-04-16T05:29:25.361Z,5
2016-04-16T05:30:25.364Z,5
2016-04-16T05:31:25.414Z,5
2016-04-16T05:32:24.667Z,5
2016-04-16T05:33:25.435Z,5
2016-04-16T05:34:25.734Z,5
2016-04-16T05:35:25.408Z,5
2016-04-16T05:36:25.411Z,5
2016-04-16T05:37:25.430Z,5
2016-04-16T05:38:25.416Z,5
2016-04-16T05:39:25.263Z,5
2016-04-16T05:40:25.438Z,5
2016-04-16T05:41:25.441Z,5
2016-04-16T05:42:25.709Z,5
2016-04-16T05:43:25.462Z,5
2016-04-16T05:44:25.511Z,5
2016-04-16T05:45:25.826Z,5
2016-04-16T05:46:25.485Z,5
2016-04-16T05:47:25.800Z,5
2016-04-16T05:48:25.507Z,5
2016-04-16T05:49:25.603Z,5
2016-04-16T05:50:25.512Z,5
2016-04-16T05:51:25.514Z,5
2016-04-16T05:52:25.533Z,5
2016-04-16T05:53:25.536Z,5
2016-04-16T05:54:25.866Z,5
2016-04-16T05:55:25.759Z,5
2016-04-16T05:56:25.559Z,5
2016-04-16T05:57:25.577Z,5
2016-04-16T05:58:25.814Z,10
2016-04-16T05:59:25.676Z,10
2016-04-16T06:00:25.586Z,10
2016-04-16T06:01:25.885Z,10
2016-04-16T06:02:25.591Z,10
2016-04-16T06:03:25.608Z,10
2016-04-16T06:04:25.768Z,10
2016-04-16T06:05:25.646Z,10
2016-04-16T06:06:26.023Z,10
2016-04-16T06:07:25.635Z,10
2016-04-16T06:08:25.654Z,10
2016-04-16T06:09:25.656Z,10
2016-04-16T06:10:25.659Z,10
2016-04-16T06:11:25.755Z,10
2016-04-16T06:12:25.665Z,10
2016-04-16T06:13:25.699Z,10
2016-04-16T06:14:25.795Z,10
2016-04-16T06:15:25.798Z,10
2016-04-16T06:16:25.691Z,10
2016-04-16T06:17:26.007Z,10
2016-04-16T06:18:25.728Z,10
2016-04-16T06:19:25.731Z,15
2016-04-16T06:20:25.764Z,15
2016-04-16T06:21:25.767Z,15
2016-04-16T06:22:25.847Z,15
2016-04-16T06:23:25.773Z,15
2016-04-16T06:24:25.775Z,15
2016-04-16T06:25:26.075Z,15
2016-04-16T06:26:25.796Z,15
2016-04-16T06:27:25.814Z,15
2016-04-16T06:28:26.113Z,15
2016-04-16T06:29:26.101Z,15
2016-04-16T06:30:39.978Z,15
2016-04-16T06:31:25.825Z,15
2016-04-16T06:32:25.858Z,10
2016-04-16T06:33:25.846Z,10
2016-04-16T06:34:26.099Z,10
2016-04-16T06:35:25.851Z,10
2016-04-16T06:36:25.855Z,10
2016-04-16T06:37:25.966Z,5
2016-04-16T06:38:25.875Z,5
2016-04-16T06:39:25.877Z,5
2016-04-16T06:40:25.880Z,5
2016-04-16T06:41:25.915Z,5
2016-04-16T06:42:25.902Z,10
2016-04-16T06:43:25.921Z,10
2016-04-16T06:44:26.188Z,10
2016-04-16T06:45:26.301Z,10
2016-04-16T06:46:25.943Z,10
2016-04-16T06:47:25.946Z,10
2016-04-16T06:48:25.668Z,10
2016-04-16T06:49:26.107Z,10
2016-04-16T06:50:25.985Z,10
2016-04-16T06:51:26.098Z,10
2016-04-16T06:52:25.976Z,10
2016-04-16T06:53:25.993Z,10
2016-04-16T06:54:25.262Z,10
2016-04-16T06:55:25.999Z,10
2016-04-16T06:56:26.314Z,10
2016-04-16T06:57:26.161Z,10
2016-04-16T06:58:26.023Z,10
2016-04-16T06:59:26.025Z,15
2016-04-16T07:00:26.387Z,15
2016-04-16T07:01:26.062Z,15
2016-04-16T07:02:26.361Z,15
2016-04-16T07:03:26.114Z,15
2016-04-16T07:04:26.086Z,15
2016-04-16T07:05:26.088Z,15
2016-04-16T07:06:26.138Z,15
2016-04-16T07:07:26.360Z,15
2016-04-16T07:08:26.096Z,15
2016-04-16T07:09:26.115Z,15
2016-04-16T07:10:26.132Z,15
2016-04-16T07:11:26.121Z,15
2016-04-16T07:12:26.124Z,15
2016-04-16T07:13:26.140Z,15
2016-04-16T07:14:26.300Z,20
2016-04-16T07:15:26.162Z,20
2016-04-16T07:16:26.337Z,20
2016-04-16T07:17:26.168Z,15
2016-04-16T07:18:26.170Z,15
2016-04-16T07:19:26.188Z,15
2016-04-16T07:20:26.456Z,20
2016-04-16T07:21:26.084Z,15
2016-04-16T07:22:26.228Z,15
2016-04-16T07:23:26.245Z,15
2016-04-16T07:24:26.248Z,20
2016-04-16T07:25:26.283Z,15
2016-04-16T07:26:26.254Z,20
2016-04-16T07:27:26.256Z,20
2016-04-16T07:28:26.087Z,20
2016-04-16T07:29:26.247Z,20
2016-04-16T07:30:26.250Z,25
2016-04-16T07:31:26.268Z,25
2016-04-16T07:32:26.286Z,30
2016-04-16T07:33:26.289Z,30
2016-04-16T07:34:26.322Z,30
2016-04-16T07:35:26.310Z,30
2016-04-16T07:36:26.156Z,30
2016-04-16T07:37:26.330Z,30
2016-04-16T07:38:26.333Z,25
2016-04-16T07:39:26.335Z,20
2016-04-16T07:40:26.182Z,20
2016-04-16T07:41:26.358Z,20
2016-04-16T07:42:26.359Z,20
2016-04-16T07:43:26.362Z,20
2016-04-16T07:44:26.380Z,20
2016-04-16T07:45:26.383Z,25
2016-04-16T07:46:26.386Z,25
2016-04-16T07:47:26.405Z,25
2016-04-16T07:48:26.423Z,20
2016-04-16T07:49:26.426Z,20
2016-04-16T07:50:26.428Z,20
2016-04-16T07:51:26.462Z,15
2016-04-16T07:52:26.434Z,20
2016-04-16T07:53:26.452Z,20
2016-04-16T07:54:26.454Z,20
2016-04-16T07:55:26.473Z,20
2016-04-16T07:56:26.476Z,25
2016-04-16T07:57:26.479Z,30
2016-04-16T07:58:26.480Z,30
2016-04-16T07:59:26.499Z,35
2016-04-16T08:00:26.503Z,35
2016-04-16T08:01:26.505Z,35
2016-04-16T08:02:26.522Z,35
2016-04-16T08:03:26.525Z,35
2016-04-16T08:04:26.528Z,30
2016-04-16T08:05:26.547Z,25
2016-04-16T08:06:26.658Z,25
2016-04-16T08:07:26.599Z,25
2016-04-16T08:08:26.414Z,25
2016-04-16T08:09:26.573Z,25
2016-04-16T08:10:26.575Z,25
2016-04-16T08:11:26.594Z,25
2016-04-16T08:12:26.580Z,25
2016-04-16T08:13:26.443Z,25
2016-04-16T08:14:26.618Z,20
2016-04-16T08:15:26.604Z,25
2016-04-16T08:16:26.467Z,25
2016-04-16T08:17:26.646Z,20
2016-04-16T08:18:26.634Z,25
2016-04-16T08:19:26.652Z,25
2016-04-16T08:20:26.670Z,25
2016-04-16T08:21:26.719Z,25
2016-04-16T08:22:26.551Z,25
2016-04-16T08:23:26.678Z,25
2016-04-16T08:24:26.681Z,30
2016-04-16T08:25:26.698Z,30
2016-04-16T08:26:26.701Z,35
2016-04-16T08:27:26.720Z,35
2016-04-16T08:28:26.722Z,35
2016-04-16T08:29:26.741Z,35
2016-04-16T08:30:26.744Z,30
2016-04-16T08:31:26.747Z,30
2016-04-16T08:32:26.749Z,30
2016-04-16T08:33:26.767Z,30
2016-04-16T08:34:26.755Z,30
2016-04-16T08:35:26.788Z,30
2016-04-16T08:36:26.807Z,25
2016-04-16T08:37:26.794Z,30
2016-04-16T08:38:26.796Z,30
2016-04-16T08:39:26.815Z,35
2016-04-16T08:40:26.849Z,35
2016-04-16T08:41:26.835Z,40
2016-04-16T08:42:26.823Z,35
2016-04-16T08:43:26.857Z,30
2016-04-16T08:44:26.860Z,35
2016-04-16T08:45:26.863Z,35
2016-04-16T08:46:26.146Z,35
2016-04-16T08:47:26.883Z,30
2016-04-16T08:48:26.885Z,30
2016-04-16T08:49:26.888Z,30
2016-04-16T08:50:26.907Z,35
2016-04-16T08:51:26.910Z,35
2016-04-16T08:52:26.912Z,25
2016-04-16T08:53:26.915Z,25
2016-04-16T08:54:26.934Z,25
2016-04-16T08:55:26.951Z,30
2016-04-16T08:56:26.954Z,35
2016-04-16T08:57:26.956Z,40
2016-04-16T08:58:26.944Z,45
2016-04-16T08:59:26.977Z,45
2016-04-16T09:00:26.981Z,40
2016-04-16T09:01:26.983Z,45
2016-04-16T09:02:26.986Z,45
2016-04-16T09:03:27.005Z,40
2016-04-16T09:04:27.007Z,40
2016-04-16T09:05:27.010Z,45
2016-04-16T09:06:27.044Z,40
2016-04-16T09:07:27.031Z,40
2016-04-16T09:08:27.049Z,40
2016-04-16T09:09:27.067Z,40
2016-04-16T09:10:27.054Z,40
2016-04-16T09:11:27.072Z,45
2016-04-16T09:12:27.091Z,45
2016-04-16T09:13:27.077Z,40
2016-04-16T09:14:27.096Z,40
2016-04-16T09:15:27.099Z,35
2016-04-16T09:16:27.118Z,30
2016-04-16T09:17:27.121Z,30
2016-04-16T09:18:27.137Z,25
2016-04-16T09:19:27.140Z,25
2016-04-16T09:20:27.159Z,25
2016-04-16T09:21:27.162Z,25
2016-04-16T09:22:27.164Z,25
2016-04-16T09:23:27.168Z,30
2016-04-16T09:24:27.186Z,40
2016-04-16T09:25:27.189Z,40
2016-04-16T09:26:27.175Z,45
2016-04-16T09:27:27.225Z,45
2016-04-16T09:28:27.212Z,45
2016-04-16T09:29:27.215Z,40
2016-04-16T09:30:27.234Z,45
2016-04-16T09:31:27.236Z,45
2016-04-16T09:32:27.239Z,40
2016-04-16T09:33:27.256Z,35
2016-04-16T09:34:27.259Z,35
2016-04-16T09:35:27.261Z,35
2016-04-16T09:36:27.264Z,35
2016-04-16T09:37:27.283Z,35
2016-04-16T09:38:27.286Z,35
2016-04-16T09:39:27.289Z,30
2016-04-16T09:40:27.307Z,35
2016-04-16T09:41:27.325Z,35
2016-04-16T09:42:27.312Z,35
2016-04-16T09:43:27.330Z,40
2016-04-16T09:44:27.332Z,45
2016-04-16T09:45:27.351Z,40
2016-04-16T09:46:27.354Z,35
2016-04-16T09:47:27.357Z,30
2016-04-16T09:48:27.375Z,25
2016-04-16T09:49:27.378Z,25
2016-04-16T09:50:27.396Z,30
2016-04-16T09:51:27.415Z,35
2016-04-16T09:52:27.402Z,40
2016-04-16T09:53:27.404Z,45
2016-04-16T09:54:27.423Z,50
2016-04-16T09:55:27.440Z,55
2016-04-16T09:56:27.459Z,45
2016-04-16T09:57:27.462Z,30
2016-04-16T09:58:27.433Z,35
2016-04-16T09:59:27.467Z,35
2016-04-16T10:00:27.469Z,30
2016-04-16T10:01:27.504Z,25
2016-04-16T10:02:27.492Z,30
2016-04-16T10:03:27.494Z,35
2016-04-16T10:04:27.511Z,30
2016-04-16T10:05:27.499Z,20
2016-04-16T10:06:27.533Z,25
2016-04-16T10:07:27.520Z,25
2016-04-16T10:08:27.539Z,20
2016-04-16T10:09:27.588Z,15
2016-04-16T10:10:27.591Z,10
2016-04-16T10:11:27.547Z,10
2016-04-16T10:12:27.580Z,10
2016-04-16T10:13:27.568Z,10
2016-04-16T10:14:27.602Z,5
2016-04-16T10:15:27.589Z,5
2016-04-16T10:16:27.607Z,5
2016-04-16T10:17:27.625Z,5
2016-04-16T10:18:27.612Z,5
2016-04-16T10:19:27.630Z,5
2016-04-16T10:20:27.632Z,10
2016-04-16T10:21:27.635Z,15
2016-04-16T10:22:27.654Z,15
2016-04-16T10:23:27.673Z,20
2016-04-16T10:24:27.676Z,30
2016-04-16T10:25:27.678Z,25
2016-04-16T10:26:27.681Z,20
2016-04-16T10:27:27.698Z,20
2016-04-16T10:28:27.701Z,25
2016-04-16T10:29:27.703Z,30
2016-04-16T10:30:27.722Z,35
2016-04-16T10:31:27.725Z,35
2016-04-16T10:32:27.744Z,30
2016-04-16T10:33:27.746Z,30
2016-04-16T10:34:27.749Z,25
2016-04-16T10:35:27.752Z,25
2016-04-16T10:36:27.770Z,20
2016-04-16T10:37:27.789Z,20
2016-04-16T10:38:27.775Z,20
2016-04-16T10:39:27.794Z,15
2016-04-16T10:40:27.796Z,15
2016-04-16T10:41:27.814Z,15
2016-04-16T10:42:27.817Z,15
2016-04-16T10:43:27.680Z,20
2016-04-16T10:44:27.838Z,20
2016-04-16T10:45:27.685Z,20
2016-04-16T10:46:27.844Z,20
2016-04-16T10:47:27.877Z,20
2016-04-16T10:48:27.880Z,25
2016-04-16T10:49:27.898Z,25
2016-04-16T10:50:27.885Z,20
2016-04-16T10:51:27.903Z,20
2016-04-16T10:52:27.906Z,20
2016-04-16T10:53:27.909Z,20
2016-04-16T10:54:27.943Z,20
2016-04-16T10:55:27.961Z,20
2016-04-16T10:56:27.933Z,20
2016-04-16T10:57:27.795Z,20
2016-04-16T10:58:27.954Z,20
2016-04-16T10:59:27.957Z,15
2016-04-16T11:00:27.960Z,15
2016-04-16T11:01:27.978Z,15
2016-04-16T11:02:27.981Z,15
2016-04-16T11:03:27.998Z,15
2016-04-16T11:04:28.001Z,15
2016-04-16T11:05:28.003Z,15
2016-04-16T11:06:28.006Z,15
2016-04-16T11:07:28.025Z,15
2016-04-16T11:08:28.028Z,15
2016-04-16T11:09:28.031Z,15
2016-04-16T11:10:28.064Z,15
2016-04-16T11:11:28.067Z,15
2016-04-16T11:12:28.085Z,15
2016-04-16T11:13:28.072Z,20
2016-04-16T11:14:28.090Z,20
2016-04-16T11:15:28.077Z,20
2016-04-16T11:16:28.112Z,20
2016-04-16T11:17:28.130Z,15
2016-04-16T11:18:28.117Z,15
2016-04-16T11:19:28.135Z,15
2016-04-16T11:20:28.138Z,15
2016-04-16T11:21:28.141Z,15
2016-04-16T11:22:28.159Z,20
2016-04-16T11:23:28.162Z,20
2016-04-16T11:24:28.180Z,20
2016-04-16T11:25:28.167Z,20
2016-04-16T11:26:28.029Z,20
2016-04-16T11:27:28.188Z,20
2016-04-16T11:28:28.206Z,20
2016-04-16T11:29:28.209Z,20
2016-04-16T11:30:28.211Z,20
2016-04-16T11:31:28.231Z,20
2016-04-16T11:32:28.233Z,20
2016-04-16T11:33:28.251Z,15
2016-04-16T11:34:28.254Z,15
2016-04-16T11:35:28.256Z,15
2016-04-16T11:36:28.275Z,15
2016-04-16T11:37:28.262Z,20
2016-04-16T11:38:28.280Z,20
2016-04-16T11:39:28.299Z,20
2016-04-16T11:40:28.302Z,20
2016-04-16T11:41:28.304Z,25
2016-04-16T11:42:28.307Z,25
2016-04-16T11:43:28.341Z,25
2016-04-16T11:44:28.343Z,25
2016-04-16T11:45:28.346Z,25
2016-04-16T11:46:28.349Z,25
2016-04-16T11:47:28.351Z,25
2016-04-16T11:48:28.354Z,25
2016-04-16T11:49:28.372Z,25
2016-04-16T11:50:28.418Z,25
2016-04-16T11:51:28.481Z,25
2016-04-16T11:52:28.528Z,25
2016-04-16T11:53:28.590Z,25
2016-04-16T11:54:28.621Z,25
2016-04-16T11:55:28.657Z,25
2016-04-16T11:56:27.956Z,25
2016-04-16T11:57:28.708Z,25
2016-04-16T11:58:28.743Z,25
2016-04-16T11:59:28.761Z,30
2016-04-16T12:00:28.785Z,35
2016-04-16T12:01:28.779Z,40
2016-04-16T12:02:28.803Z,50
2016-04-16T12:03:28.811Z,50
2016-04-16T12:04:28.835Z,55
2016-04-16T12:05:28.824Z,55
2016-04-16T12:06:28.844Z,60
2016-04-16T12:07:29.053Z,50
2016-04-16T12:08:28.901Z,55
2016-04-16T12:09:28.891Z,55
2016-04-16T12:10:28.879Z,55
2016-04-16T12:11:28.883Z,65
2016-04-16T12:12:28.901Z,70
2016-04-16T12:13:28.904Z,80
2016-04-16T12:14:28.830Z,70
2016-04-16T12:15:28.943Z,50
2016-04-16T12:16:28.946Z,40
2016-04-16T12:17:28.965Z,30
2016-04-16T12:18:28.952Z,20
2016-04-16T12:19:28.971Z,20
2016-04-16T12:20:28.989Z,15
2016-04-16T12:21:28.992Z,20
2016-04-16T12:22:29.260Z,15
2016-04-16T12:23:28.997Z,15
2016-04-16T12:24:29.016Z,15
2016-04-16T12:25:29.019Z,15
2016-04-16T12:26:29.021Z,15
2016-04-16T12:27:29.039Z,15
2016-04-16T12:28:29.042Z,15
2016-04-16T12:29:29.060Z,15
2016-04-16T12:30:29.063Z,15
2016-04-16T12:31:29.066Z,15
2016-04-16T12:32:29.084Z,15
2016-04-16T12:33:29.149Z,15
2016-04-16T12:34:29.104Z,15
2016-04-16T12:35:29.092Z,10
2016-04-16T12:36:29.141Z,10
2016-04-16T12:37:29.347Z,10
2016-04-16T12:38:29.116Z,10
2016-04-16T12:39:29.134Z,10
2016-04-16T12:40:29.137Z,10
2016-04-16T12:41:29.155Z,10
2016-04-16T12:42:29.189Z,10
2016-04-16T12:43:29.176Z,15
2016-04-16T12:44:29.179Z,10
2016-04-16T12:45:29.181Z,10
2016-04-16T12:46:29.200Z,10
2016-04-16T12:47:29.217Z,10
2016-04-16T12:48:29.206Z,10
2016-04-16T12:49:29.223Z,10
2016-04-16T12:50:29.211Z,10
2016-04-16T12:51:29.229Z,15
2016-04-16T12:52:29.122Z,15
2016-04-16T12:53:29.250Z,15
2016-04-16T12:54:29.267Z,20
2016-04-16T12:55:29.270Z,15
2016-04-16T12:56:29.289Z,15
2016-04-16T12:57:29.291Z,15
2016-04-16T12:58:29.294Z,10
2016-04-16T12:59:29.313Z,10
2016-04-16T13:00:29.159Z,10
2016-04-16T13:01:29.318Z,20
2016-04-16T13:02:29.336Z,25
2016-04-16T13:03:29.354Z,25
2016-04-16T13:04:29.357Z,20
2016-04-16T13:05:29.344Z,20
2016-04-16T13:06:29.363Z,15
2016-04-16T13:07:29.427Z,15
2016-04-16T13:08:29.384Z,15
2016-04-16T13:09:29.387Z,10
2016-04-16T13:10:29.389Z,10
2016-04-16T13:11:29.407Z,15
2016-04-16T13:12:29.410Z,20
2016-04-16T13:13:29.412Z,25
2016-04-16T13:14:29.432Z,25
2016-04-16T13:15:29.434Z,25
2016-04-16T13:16:29.436Z,20
2016-04-16T13:17:29.454Z,30
2016-04-16T13:18:29.457Z,25
2016-04-16T13:19:29.460Z,20
2016-04-16T13:20:29.479Z,20
2016-04-16T13:21:29.481Z,15
2016-04-16T13:22:29.356Z,15
2016-04-16T13:23:29.534Z,15
2016-04-16T13:24:29.520Z,15
2016-04-16T13:25:29.523Z,15
2016-04-16T13:26:29.542Z,15
2016-04-16T13:27:29.528Z,15
2016-04-16T13:28:29.531Z,15
2016-04-16T13:29:29.565Z,15
2016-04-16T13:30:29.568Z,20
2016-04-16T13:31:29.571Z,20
2016-04-16T13:32:29.573Z,15
2016-04-16T13:33:29.591Z,10
2016-04-16T13:34:29.594Z,10
2016-04-16T13:35:29.597Z,10
2016-04-16T13:36:29.616Z,10
2016-04-16T13:37:29.665Z,10
2016-04-16T13:38:29.621Z,10
2016-04-16T13:39:29.623Z,10
2016-04-16T13:40:29.641Z,10
2016-04-16T13:41:29.644Z,10
2016-04-16T13:42:29.646Z,10
2016-04-16T13:43:29.666Z,10
2016-04-16T13:44:29.715Z,10
2016-04-16T13:45:29.702Z,15
2016-04-16T13:46:29.705Z,10
2016-04-16T13:47:29.690Z,15
2016-04-16T13:48:29.726Z,15
2016-04-16T13:49:29.744Z,15
2016-04-16T13:50:29.731Z,10
2016-04-16T13:51:29.764Z,10
2016-04-16T13:52:29.752Z,10
2016-04-16T13:53:29.770Z,10
2016-04-16T13:54:29.772Z,10
2016-04-16T13:55:29.760Z,10
2016-04-16T13:56:29.794Z,15
2016-04-16T13:57:29.797Z,15
2016-04-16T13:58:29.784Z,20
2016-04-16T13:59:29.081Z,20
2016-04-16T14:00:29.802Z,20
2016-04-16T14:01:29.805Z,20
2016-04-16T14:02:29.839Z,15
2016-04-16T14:03:29.825Z,20
2016-04-16T14:04:29.828Z,15
2016-04-16T14:05:29.846Z,15
2016-04-16T14:06:29.865Z,15
2016-04-16T14:07:29.899Z,15
2016-04-16T14:08:29.902Z,15
2016-04-16T14:09:29.888Z,15
2016-04-16T14:10:29.891Z,15
2016-04-16T14:11:29.894Z,15
2016-04-16T14:12:29.928Z,15
2016-04-16T14:13:29.931Z,15
2016-04-16T14:14:29.917Z,15
2016-04-16T14:15:29.951Z,15
2016-04-16T14:16:29.939Z,10
2016-04-16T14:17:29.957Z,10
2016-04-16T14:18:29.975Z,10
2016-04-16T14:19:29.978Z,10
2016-04-16T14:20:29.981Z,10
2016-04-16T14:21:29.998Z,10
2016-04-16T14:22:30.017Z,10
2016-04-16T14:23:30.004Z,10
2016-04-16T14:24:30.007Z,10
2016-04-16T14:25:30.009Z,15
2016-04-16T14:26:30.028Z,20
2016-04-16T14:27:30.031Z,15
2016-04-16T14:28:29.878Z,15